sensor_id;sensor_type;location;lat;lon;timestamp;pressure;altitude;pressure_sealevel;temperature;humidity
41467;BME280;27205;53.690;19.948;2023-04-03T00:00:09;100847.59;;;1.32;62.75
41467;BME280;27205;53.690;19.948;2023-04-03T00:05:33;100847.13;;;1.28;62.65
41467;BME280;27205;53.690;19.948;2023-04-03T00:10:37;100848.13;;;1.29;62.63
41467;BME280;27205;53.690;19.948;2023-04-03T00:15:41;100853.48;;;1.27;62.50
41467;BME280;27205;53.690;19.948;2023-04-03T00:20:45;100855.87;;;1.21;62.69
41467;BME280;27205;53.690;19.948;2023-04-03T00:25:49;100858.96;;;1.19;62.63
41467;BME280;27205;53.690;19.948;2023-04-03T00:30:53;100855.31;;;1.12;62.71
41467;BME280;27205;53.690;19.948;2023-04-03T00:35:57;100863.22;;;1.13;62.89
41467;BME280;27205;53.690;19.948;2023-04-03T00:41:01;100864.61;;;1.17;62.70
41467;BME280;27205;53.690;19.948;2023-04-03T00:46:05;100862.66;;;1.14;62.56
41467;BME280;27205;53.690;19.948;2023-04-03T00:51:19;100863.97;;;1.08;62.65
41467;BME280;27205;53.690;19.948;2023-04-03T00:56:25;100864.38;;;1.11;62.62
41467;BME280;27205;53.690;19.948;2023-04-03T01:01:30;100873.65;;;1.05;62.80
41467;BME280;27205;53.690;19.948;2023-04-03T01:06:36;100869.70;;;1.00;62.94
41467;BME280;27205;53.690;19.948;2023-04-03T01:11:40;100874.42;;;0.98;62.90
41467;BME280;27205;53.690;19.948;2023-04-03T01:16:54;100874.48;;;0.95;63.41
41467;BME280;27205;53.690;19.948;2023-04-03T01:22:10;100882.55;;;0.97;63.00
41467;BME280;27205;53.690;19.948;2023-04-03T01:27:18;100883.48;;;0.98;63.21
41467;BME280;27205;53.690;19.948;2023-04-03T01:32:22;100882.39;;;0.96;63.48
41467;BME280;27205;53.690;19.948;2023-04-03T01:37:26;100888.65;;;0.94;63.45
41467;BME280;27205;53.690;19.948;2023-04-03T01:42:29;100891.30;;;0.93;63.29
41467;BME280;27205;53.690;19.948;2023-04-03T01:47:33;100895.45;;;0.88;63.41
41467;BME280;27205;53.690;19.948;2023-04-03T01:52:37;100898.69;;;0.85;63.79
41467;BME280;27205;53.690;19.948;2023-04-03T01:57:40;100905.45;;;0.72;64.07
41467;BME280;27205;53.690;19.948;2023-04-03T02:02:44;100903.51;;;0.70;64.14
41467;BME280;27205;53.690;19.948;2023-04-03T02:07:47;100900.54;;;0.63;64.46
41467;BME280;27205;53.690;19.948;2023-04-03T02:12:51;100908.41;;;0.57;64.76
41467;BME280;27205;53.690;19.948;2023-04-03T02:17:54;100913.45;;;0.60;64.44
41467;BME280;27205;53.690;19.948;2023-04-03T02:22:58;100916.54;;;0.57;64.60
41467;BME280;27205;53.690;19.948;2023-04-03T02:28:02;100916.67;;;0.54;64.64
41467;BME280;27205;53.690;19.948;2023-04-03T02:33:05;100916.86;;;0.46;64.90
41467;BME280;27205;53.690;19.948;2023-04-03T02:38:09;100915.52;;;0.41;65.05
41467;BME280;27205;53.690;19.948;2023-04-03T02:43:13;100923.78;;;0.36;65.10
41467;BME280;27205;53.690;19.948;2023-04-03T02:48:17;100929.40;;;0.33;65.48
41467;BME280;27205;53.690;19.948;2023-04-03T02:53:20;100935.34;;;0.31;65.87
41467;BME280;27205;53.690;19.948;2023-04-03T02:58:24;100939.98;;;0.29;65.53
41467;BME280;27205;53.690;19.948;2023-04-03T03:03:28;100940.20;;;0.28;65.73
41467;BME280;27205;53.690;19.948;2023-04-03T03:08:32;100939.71;;;0.25;65.83
41467;BME280;27205;53.690;19.948;2023-04-03T03:13:37;100940.17;;;0.24;65.76
41467;BME280;27205;53.690;19.948;2023-04-03T03:18:40;100945.04;;;0.22;65.96
41467;BME280;27205;53.690;19.948;2023-04-03T03:23:44;100945.45;;;0.16;65.97
41467;BME280;27205;53.690;19.948;2023-04-03T03:28:47;100949.38;;;0.13;66.27
41467;BME280;27205;53.690;19.948;2023-04-03T03:33:51;100952.64;;;0.14;65.87
41467;BME280;27205;53.690;19.948;2023-04-03T03:38:54;100954.98;;;0.08;65.83
41467;BME280;27205;53.690;19.948;2023-04-03T03:43:58;100953.05;;;0.06;65.62
41467;BME280;27205;53.690;19.948;2023-04-03T03:49:01;100953.80;;;0.04;65.72
41467;BME280;27205;53.690;19.948;2023-04-03T03:54:05;100956.41;;;0.02;65.61
41467;BME280;27205;53.690;19.948;2023-04-03T03:59:11;100958.54;;;-0.02;65.58
41467;BME280;27205;53.690;19.948;2023-04-03T04:04:15;100961.52;;;-0.06;65.71
41467;BME280;27205;53.690;19.948;2023-04-03T04:09:19;100967.77;;;-0.08;65.23
41467;BME280;27205;53.690;19.948;2023-04-03T04:14:23;100967.33;;;-0.05;65.19
41467;BME280;27205;53.690;19.948;2023-04-03T04:19:26;100974.21;;;-0.05;65.30
41467;BME280;27205;53.690;19.948;2023-04-03T04:24:30;100973.98;;;-0.04;65.41
41467;BME280;27205;53.690;19.948;2023-04-03T04:29:33;100985.28;;;0.03;65.18
41467;BME280;27205;53.690;19.948;2023-04-03T04:34:38;100986.86;;;0.07;65.27
41467;BME280;27205;53.690;19.948;2023-04-03T04:39:42;100990.38;;;0.11;65.17
41467;BME280;27205;53.690;19.948;2023-04-03T04:44:46;100996.77;;;0.16;64.74
41467;BME280;27205;53.690;19.948;2023-04-03T04:49:49;100996.40;;;0.19;64.91
41467;BME280;27205;53.690;19.948;2023-04-03T04:54:53;100998.70;;;0.27;65.19
41467;BME280;27205;53.690;19.948;2023-04-03T04:59:57;101000.84;;;0.32;64.69
41467;BME280;27205;53.690;19.948;2023-04-03T05:05:00;101002.02;;;0.36;64.62
41467;BME280;27205;53.690;19.948;2023-04-03T05:10:07;101004.90;;;0.47;64.29
41467;BME280;27205;53.690;19.948;2023-04-03T05:15:11;101011.75;;;0.52;63.96
41467;BME280;27205;53.690;19.948;2023-04-03T05:20:15;101014.92;;;0.61;63.47
41467;BME280;27205;53.690;19.948;2023-04-03T05:25:18;101023.93;;;0.66;62.75
41467;BME280;27205;53.690;19.948;2023-04-03T05:30:22;101026.65;;;0.79;62.23
41467;BME280;27205;53.690;19.948;2023-04-03T05:35:26;101028.66;;;0.91;62.19
41467;BME280;27205;53.690;19.948;2023-04-03T05:40:29;101029.23;;;0.97;61.25
41467;BME280;27205;53.690;19.948;2023-04-03T05:45:33;101038.02;;;1.02;60.24
41467;BME280;27205;53.690;19.948;2023-04-03T05:50:36;101042.42;;;1.15;60.09
41467;BME280;27205;53.690;19.948;2023-04-03T05:55:44;101042.01;;;1.22;59.74
41467;BME280;27205;53.690;19.948;2023-04-03T06:00:48;101045.57;;;1.23;59.14
41467;BME280;27205;53.690;19.948;2023-04-03T06:05:52;101045.40;;;1.35;59.55
41467;BME280;27205;53.690;19.948;2023-04-03T06:10:56;101043.77;;;1.50;58.59
41467;BME280;27205;53.690;19.948;2023-04-03T06:15:59;101039.67;;;1.59;57.92
41467;BME280;27205;53.690;19.948;2023-04-03T06:21:03;101045.66;;;1.64;57.55
41467;BME280;27205;53.690;19.948;2023-04-03T06:26:07;101056.14;;;1.65;56.94
41467;BME280;27205;53.690;19.948;2023-04-03T06:31:11;101053.55;;;1.80;57.49
41467;BME280;27205;53.690;19.948;2023-04-03T06:36:15;101055.50;;;1.86;56.68
41467;BME280;27205;53.690;19.948;2023-04-03T06:41:22;101067.54;;;1.91;56.21
41467;BME280;27205;53.690;19.948;2023-04-03T06:46:26;101070.49;;;1.92;55.70
41467;BME280;27205;53.690;19.948;2023-04-03T06:51:30;101062.99;;;2.01;55.92
41467;BME280;27205;53.690;19.948;2023-04-03T06:56:34;101070.15;;;2.07;55.64
41467;BME280;27205;53.690;19.948;2023-04-03T07:01:37;101077.06;;;2.14;55.73
41467;BME280;27205;53.690;19.948;2023-04-03T07:06:41;101076.76;;;2.17;55.22
41467;BME280;27205;53.690;19.948;2023-04-03T07:11:45;101076.38;;;2.25;55.42
41467;BME280;27205;53.690;19.948;2023-04-03T07:16:49;101079.12;;;2.42;54.86
41467;BME280;27205;53.690;19.948;2023-04-03T07:21:52;101085.49;;;2.55;54.48
41467;BME280;27205;53.690;19.948;2023-04-03T07:26:56;101093.10;;;2.58;53.78
41467;BME280;27205;53.690;19.948;2023-04-03T07:31:59;101097.15;;;2.74;53.72
41467;BME280;27205;53.690;19.948;2023-04-03T07:37:03;101099.16;;;2.87;53.29
41467;BME280;27205;53.690;19.948;2023-04-03T07:42:07;101106.46;;;2.86;52.64
41467;BME280;27205;53.690;19.948;2023-04-03T07:47:11;101102.04;;;2.91;52.37
41467;BME280;27205;53.690;19.948;2023-04-03T07:52:15;101101.40;;;3.10;53.32
41467;BME280;27205;53.690;19.948;2023-04-03T07:57:18;101107.45;;;3.46;52.81
41467;BME280;27205;53.690;19.948;2023-04-03T08:02:22;101106.68;;;3.62;51.12
41467;BME280;27205;53.690;19.948;2023-04-03T08:07:26;101108.60;;;3.88;51.06
41467;BME280;27205;53.690;19.948;2023-04-03T08:12:30;101113.15;;;4.10;49.37
41467;BME280;27205;53.690;19.948;2023-04-03T08:17:35;101112.03;;;4.15;49.53
41467;BME280;27205;53.690;19.948;2023-04-03T08:22:39;101120.83;;;4.17;48.48
41467;BME280;27205;53.690;19.948;2023-04-03T08:27:42;101112.77;;;4.25;49.22
41467;BME280;27205;53.690;19.948;2023-04-03T08:32:46;101116.41;;;4.61;49.48
41467;BME280;27205;53.690;19.948;2023-04-03T08:37:49;101118.73;;;5.08;48.57
41467;BME280;27205;53.690;19.948;2023-04-03T08:48:15;101121.90;;;5.63;47.77
41467;BME280;27205;53.690;19.948;2023-04-03T08:53:21;101124.40;;;5.49;46.30
41467;BME280;27205;53.690;19.948;2023-04-03T08:58:30;101122.10;;;5.61;46.40
41467;BME280;27205;53.690;19.948;2023-04-03T09:03:39;101121.54;;;5.68;46.32
41467;BME280;27205;53.690;19.948;2023-04-03T09:08:55;101124.58;;;5.76;45.40
41467;BME280;27205;53.690;19.948;2023-04-03T09:25:29;101122.39;;;5.34;43.55
41467;BME280;27205;53.690;19.948;2023-04-03T09:30:36;101120.41;;;5.05;43.88
41467;BME280;27205;53.690;19.948;2023-04-03T09:35:41;101116.92;;;4.93;43.81
41467;BME280;27205;53.690;19.948;2023-04-03T09:41:04;101108.32;;;5.04;43.55
41467;BME280;27205;53.690;19.948;2023-04-03T09:46:33;101102.84;;;5.30;43.70
41467;BME280;27205;53.690;19.948;2023-04-03T09:51:38;101110.47;;;5.85;44.32
41467;BME280;27205;53.690;19.948;2023-04-03T09:56:49;101113.79;;;5.90;43.89
41467;BME280;27205;53.690;19.948;2023-04-03T10:02:03;101108.86;;;5.51;43.64
41467;BME280;27205;53.690;19.948;2023-04-03T10:07:36;101100.55;;;5.45;43.25
41467;BME280;27205;53.690;19.948;2023-04-03T10:12:40;101103.82;;;5.67;43.95
41467;BME280;27205;53.690;19.948;2023-04-03T10:17:58;101098.52;;;5.72;43.69
41467;BME280;27205;53.690;19.948;2023-04-03T10:34:09;101084.98;;;5.62;43.10
41467;BME280;27205;53.690;19.948;2023-04-03T10:50:02;101082.33;;;5.89;41.24
41467;BME280;27205;53.690;19.948;2023-04-03T11:00:42;101061.55;;;6.06;40.20
41467;BME280;27205;53.690;19.948;2023-04-03T11:05:51;101059.58;;;6.27;40.28
41467;BME280;27205;53.690;19.948;2023-04-03T11:11:01;101056.52;;;6.39;40.84
41467;BME280;27205;53.690;19.948;2023-04-03T11:16:07;101067.85;;;6.44;39.85
41467;BME280;27205;53.690;19.948;2023-04-03T11:21:17;101055.17;;;6.69;39.37
41467;BME280;27205;53.690;19.948;2023-04-03T11:26:26;101054.13;;;6.92;39.62
41467;BME280;27205;53.690;19.948;2023-04-03T11:36:55;101042.18;;;7.16;39.89
41467;BME280;27205;53.690;19.948;2023-04-03T11:47:57;101058.48;;;7.34;38.50
41467;BME280;27205;53.690;19.948;2023-04-03T11:58:29;101054.73;;;7.77;38.55
41467;BME280;27205;53.690;19.948;2023-04-03T12:03:56;101055.13;;;7.35;38.92
41467;BME280;27205;53.690;19.948;2023-04-03T12:09:00;101044.46;;;7.66;39.02
41467;BME280;27205;53.690;19.948;2023-04-03T12:14:12;101048.20;;;7.40;38.83
41467;BME280;27205;53.690;19.948;2023-04-03T12:19:39;101045.01;;;7.55;38.43
41467;BME280;27205;53.690;19.948;2023-04-03T12:24:50;101030.20;;;7.47;38.78
41467;BME280;27205;53.690;19.948;2023-04-03T12:41:01;101038.98;;;7.81;38.64
41467;BME280;27205;53.690;19.948;2023-04-03T12:46:21;101031.34;;;7.79;38.23
41467;BME280;27205;53.690;19.948;2023-04-03T12:51:35;101034.60;;;7.73;38.51
41467;BME280;27205;53.690;19.948;2023-04-03T12:56:40;101048.86;;;7.73;39.00
41467;BME280;27205;53.690;19.948;2023-04-03T13:01:56;101035.52;;;7.63;39.05
41467;BME280;27205;53.690;19.948;2023-04-03T13:07:00;101030.23;;;7.68;39.10
41467;BME280;27205;53.690;19.948;2023-04-03T13:12:12;101037.06;;;7.96;39.19
41467;BME280;27205;53.690;19.948;2023-04-03T13:17:16;101036.09;;;7.65;39.05
41467;BME280;27205;53.690;19.948;2023-04-03T13:27:33;101027.30;;;7.74;39.46
41467;BME280;27205;53.690;19.948;2023-04-03T13:32:36;101020.74;;;8.00;39.32
41467;BME280;27205;53.690;19.948;2023-04-03T13:37:54;101028.64;;;7.65;39.04
41467;BME280;27205;53.690;19.948;2023-04-03T13:43:00;101020.34;;;7.47;39.48
41467;BME280;27205;53.690;19.948;2023-04-03T13:48:16;101017.46;;;7.93;39.62
41467;BME280;27205;53.690;19.948;2023-04-03T13:53:24;101029.59;;;7.77;39.17
41467;BME280;27205;53.690;19.948;2023-04-03T13:58:32;101033.03;;;7.80;39.37
41467;BME280;27205;53.690;19.948;2023-04-03T14:04:14;101026.00;;;7.38;38.82
41467;BME280;27205;53.690;19.948;2023-04-03T14:09:19;101030.42;;;7.44;39.24
41467;BME280;27205;53.690;19.948;2023-04-03T14:14:27;101023.34;;;7.75;39.42
41467;BME280;27205;53.690;19.948;2023-04-03T14:19:34;101033.94;;;7.29;39.28
41467;BME280;27205;53.690;19.948;2023-04-03T14:24:38;101024.36;;;7.18;39.11
41467;BME280;27205;53.690;19.948;2023-04-03T14:29:42;101021.44;;;7.69;39.38
41467;BME280;27205;53.690;19.948;2023-04-03T14:34:47;101022.46;;;7.47;38.90
41467;BME280;27205;53.690;19.948;2023-04-03T14:39:52;101029.86;;;8.03;38.73
41467;BME280;27205;53.690;19.948;2023-04-03T14:45:00;101037.34;;;12.26;36.97
41467;BME280;27205;53.690;19.948;2023-04-03T14:50:06;101029.75;;;12.47;35.02
41467;BME280;27205;53.690;19.948;2023-04-03T14:55:19;101044.06;;;10.40;35.95
41467;BME280;27205;53.690;19.948;2023-04-03T15:00:23;101037.33;;;11.10;34.86
41467;BME280;27205;53.690;19.948;2023-04-03T15:05:26;101039.31;;;14.24;33.94
41467;BME280;27205;53.690;19.948;2023-04-03T15:10:30;101046.17;;;13.69;33.80
41467;BME280;27205;53.690;19.948;2023-04-03T15:15:35;101048.95;;;10.70;35.13
41467;BME280;27205;53.690;19.948;2023-04-03T15:20:40;101041.48;;;9.60;35.96
41467;BME280;27205;53.690;19.948;2023-04-03T15:25:46;101031.86;;;9.50;36.52
41467;BME280;27205;53.690;19.948;2023-04-03T15:30:50;101034.16;;;8.49;37.47
41467;BME280;27205;53.690;19.948;2023-04-03T15:35:54;101041.38;;;7.41;38.82
41467;BME280;27205;53.690;19.948;2023-04-03T15:41:09;101046.64;;;6.95;39.86
41467;BME280;27205;53.690;19.948;2023-04-03T15:46:13;101037.86;;;6.70;40.34
41467;BME280;27205;53.690;19.948;2023-04-03T15:51:16;101033.92;;;6.14;40.53
41467;BME280;27205;53.690;19.948;2023-04-03T15:56:20;101031.55;;;5.64;41.24
41467;BME280;27205;53.690;19.948;2023-04-03T16:01:23;101023.44;;;5.33;42.03
41467;BME280;27205;53.690;19.948;2023-04-03T16:06:27;101025.08;;;5.12;42.80
41467;BME280;27205;53.690;19.948;2023-04-03T16:23:16;101037.61;;;5.01;42.63
41467;BME280;27205;53.690;19.948;2023-04-03T16:28:20;101024.86;;;5.12;42.42
41467;BME280;27205;53.690;19.948;2023-04-03T16:33:24;101028.23;;;5.10;42.56
41467;BME280;27205;53.690;19.948;2023-04-03T16:38:27;101031.85;;;4.84;42.14
41467;BME280;27205;53.690;19.948;2023-04-03T16:43:32;101037.86;;;4.50;42.22
41467;BME280;27205;53.690;19.948;2023-04-03T16:48:35;101039.45;;;4.35;42.62
41467;BME280;27205;53.690;19.948;2023-04-03T16:53:39;101045.45;;;4.26;43.00
41467;BME280;27205;53.690;19.948;2023-04-03T16:58:42;101051.20;;;4.13;43.78
41467;BME280;27205;53.690;19.948;2023-04-03T17:03:46;101041.98;;;3.98;44.62
41467;BME280;27205;53.690;19.948;2023-04-03T17:08:50;101040.59;;;3.83;45.41
41467;BME280;27205;53.690;19.948;2023-04-03T17:13:55;101054.42;;;3.70;45.93
41467;BME280;27205;53.690;19.948;2023-04-03T17:18:58;101056.75;;;3.56;45.87
41467;BME280;27205;53.690;19.948;2023-04-03T17:24:03;101052.46;;;3.40;46.06
41467;BME280;27205;53.690;19.948;2023-04-03T17:29:11;101050.80;;;3.23;46.40
41467;BME280;27205;53.690;19.948;2023-04-03T17:34:15;101047.19;;;3.13;46.90
41467;BME280;27205;53.690;19.948;2023-04-03T17:39:18;101046.12;;;3.04;47.41
41467;BME280;27205;53.690;19.948;2023-04-03T17:44:22;101052.35;;;2.94;47.37
41467;BME280;27205;53.690;19.948;2023-04-03T17:49:25;101056.50;;;2.77;47.76
41467;BME280;27205;53.690;19.948;2023-04-03T17:54:29;101056.90;;;2.64;47.82
41467;BME280;27205;53.690;19.948;2023-04-03T17:59:32;101055.20;;;2.51;47.68
41467;BME280;27205;53.690;19.948;2023-04-03T18:04:36;101053.95;;;2.34;47.72
41467;BME280;27205;53.690;19.948;2023-04-03T18:09:40;101054.64;;;2.26;47.90
41467;BME280;27205;53.690;19.948;2023-04-03T18:14:44;101058.52;;;2.17;48.02
41467;BME280;27205;53.690;19.948;2023-04-03T18:19:48;101049.98;;;2.13;47.84
41467;BME280;27205;53.690;19.948;2023-04-03T18:24:55;101050.17;;;2.01;47.90
41467;BME280;27205;53.690;19.948;2023-04-03T18:30:06;101051.79;;;1.89;48.06
41467;BME280;27205;53.690;19.948;2023-04-03T18:35:09;101051.23;;;1.86;48.15
41467;BME280;27205;53.690;19.948;2023-04-03T18:40:13;101050.30;;;1.85;48.20
41467;BME280;27205;53.690;19.948;2023-04-03T18:45:22;101055.42;;;1.86;48.45
41467;BME280;27205;53.690;19.948;2023-04-03T18:50:26;101050.39;;;1.86;48.50
41467;BME280;27205;53.690;19.948;2023-04-03T18:55:29;101050.06;;;1.85;48.55
41467;BME280;27205;53.690;19.948;2023-04-03T19:00:33;101050.13;;;1.79;49.05
41467;BME280;27205;53.690;19.948;2023-04-03T19:05:37;101053.06;;;1.74;49.84
41467;BME280;27205;53.690;19.948;2023-04-03T19:10:41;101044.28;;;1.70;49.74
41467;BME280;27205;53.690;19.948;2023-04-03T19:15:44;101042.63;;;1.65;49.60
41467;BME280;27205;53.690;19.948;2023-04-03T19:20:49;101042.70;;;1.57;49.91
41467;BME280;27205;53.690;19.948;2023-04-03T19:26:07;101043.05;;;1.47;50.32
41467;BME280;27205;53.690;19.948;2023-04-03T19:31:19;101040.35;;;1.33;50.61
41467;BME280;27205;53.690;19.948;2023-04-03T19:36:23;101040.80;;;1.27;50.58
41467;BME280;27205;53.690;19.948;2023-04-03T19:41:29;101039.06;;;1.24;50.80
41467;BME280;27205;53.690;19.948;2023-04-03T19:46:33;101042.04;;;1.15;51.13
41467;BME280;27205;53.690;19.948;2023-04-03T19:51:37;101042.30;;;1.03;51.22
41467;BME280;27205;53.690;19.948;2023-04-03T19:56:41;101043.61;;;0.90;51.55
41467;BME280;27205;53.690;19.948;2023-04-03T20:01:45;101042.31;;;0.95;51.55
41467;BME280;27205;53.690;19.948;2023-04-03T20:06:48;101038.27;;;0.91;52.03
41467;BME280;27205;53.690;19.948;2023-04-03T20:11:52;101033.74;;;0.87;51.91
41467;BME280;27205;53.690;19.948;2023-04-03T20:16:56;101030.01;;;0.82;52.03
41467;BME280;27205;53.690;19.948;2023-04-03T20:22:00;101036.38;;;0.75;52.66
41467;BME280;27205;53.690;19.948;2023-04-03T20:27:03;101031.55;;;0.69;52.28
41467;BME280;27205;53.690;19.948;2023-04-03T20:32:07;101028.25;;;0.62;52.18
41467;BME280;27205;53.690;19.948;2023-04-03T20:37:12;101025.27;;;0.58;52.57
41467;BME280;27205;53.690;19.948;2023-04-03T20:42:24;101019.50;;;0.43;52.99
41467;BME280;27205;53.690;19.948;2023-04-03T20:47:28;101023.77;;;0.32;53.18
41467;BME280;27205;53.690;19.948;2023-04-03T20:52:32;101014.96;;;0.26;53.39
41467;BME280;27205;53.690;19.948;2023-04-03T20:57:38;101011.84;;;0.23;53.01
41467;BME280;27205;53.690;19.948;2023-04-03T21:02:42;101014.52;;;0.20;53.01
41467;BME280;27205;53.690;19.948;2023-04-03T21:23:54;101018.98;;;-0.02;53.63
41467;BME280;27205;53.690;19.948;2023-04-03T21:28:58;101021.73;;;-0.04;53.47
41467;BME280;27205;53.690;19.948;2023-04-03T21:34:01;101017.92;;;-0.07;53.42
41467;BME280;27205;53.690;19.948;2023-04-03T21:39:05;101016.80;;;-0.10;53.63
41467;BME280;27205;53.690;19.948;2023-04-03T21:44:08;101017.91;;;-0.15;53.80
41467;BME280;27205;53.690;19.948;2023-04-03T21:49:12;101020.61;;;-0.15;54.14
41467;BME280;27205;53.690;19.948;2023-04-03T21:54:16;101015.54;;;-0.20;53.87
41467;BME280;27205;53.690;19.948;2023-04-03T21:59:20;101012.05;;;-0.21;54.36
41467;BME280;27205;53.690;19.948;2023-04-03T22:04:24;101008.55;;;-0.21;54.32
41467;BME280;27205;53.690;19.948;2023-04-03T22:09:28;101005.53;;;-0.22;54.58
41467;BME280;27205;53.690;19.948;2023-04-03T22:14:32;101007.66;;;-0.11;54.46
41467;BME280;27205;53.690;19.948;2023-04-03T22:19:35;101006.49;;;-0.19;54.73
41467;BME280;27205;53.690;19.948;2023-04-03T22:24:39;101009.08;;;-0.25;55.03
41467;BME280;27205;53.690;19.948;2023-04-03T22:29:43;101003.77;;;-0.22;55.28
41467;BME280;27205;53.690;19.948;2023-04-03T22:34:46;101003.89;;;-0.25;55.44
41467;BME280;27205;53.690;19.948;2023-04-03T22:39:50;101004.60;;;-0.24;56.08
41467;BME280;27205;53.690;19.948;2023-04-03T22:44:55;100996.36;;;-0.27;55.89
41467;BME280;27205;53.690;19.948;2023-04-03T22:50:00;100996.88;;;-0.30;55.74
41467;BME280;27205;53.690;19.948;2023-04-03T22:55:04;100990.69;;;-0.31;55.93
41467;BME280;27205;53.690;19.948;2023-04-03T23:00:21;100992.37;;;-0.33;56.24
41467;BME280;27205;53.690;19.948;2023-04-03T23:05:24;100989.31;;;-0.36;56.55
41467;BME280;27205;53.690;19.948;2023-04-03T23:10:28;100984.34;;;-0.38;56.63
41467;BME280;27205;53.690;19.948;2023-04-03T23:15:32;100984.25;;;-0.40;56.63
41467;BME280;27205;53.690;19.948;2023-04-03T23:20:35;100979.22;;;-0.41;56.90
41467;BME280;27205;53.690;19.948;2023-04-03T23:25:39;100973.92;;;-0.43;57.14
41467;BME280;27205;53.690;19.948;2023-04-03T23:30:43;100970.77;;;-0.43;57.48
41467;BME280;27205;53.690;19.948;2023-04-03T23:35:48;100967.54;;;-0.41;57.75
41467;BME280;27205;53.690;19.948;2023-04-03T23:40:51;100967.23;;;-0.39;58.31
41467;BME280;27205;53.690;19.948;2023-04-03T23:45:55;100961.48;;;-0.37;58.43
41467;BME280;27205;53.690;19.948;2023-04-03T23:50:58;100964.56;;;-0.36;58.39
41467;BME280;27205;53.690;19.948;2023-04-03T23:56:02;100960.23;;;-0.36;58.65
